createdAt,value
2023-04-14T00:04:52.836Z,16.83
2023-04-14T00:09:55.060Z,16.86
2023-04-14T00:14:57.197Z,16.89
2023-04-14T00:19:59.556Z,16.73
2023-04-14T00:25:02.468Z,17.22
2023-04-14T00:30:05.608Z,16.71
2023-04-14T00:35:08.003Z,16.58
2023-04-14T00:40:11.484Z,16.94
2023-04-14T00:45:14.623Z,16.90
2023-04-14T00:50:21.259Z,16.00
2023-04-14T00:55:23.530Z,16.28
2023-04-14T01:00:26.208Z,16.06
2023-04-14T01:05:28.469Z,16.13
2023-04-14T01:10:39.817Z,16.86
2023-04-14T01:15:59.628Z,16.81
2023-04-14T01:21:10.661Z,16.82
2023-04-14T01:26:41.902Z,16.90
2023-04-14T01:32:03.420Z,16.05
2023-04-14T01:37:31.149Z,16.12
2023-04-14T01:42:37.468Z,16.11
2023-04-14T01:47:42.499Z,16.15
2023-04-14T01:52:50.756Z,16.18
2023-04-14T01:57:55.888Z,16.19
2023-04-14T02:02:59.060Z,16.13
2023-04-14T02:08:04.191Z,15.94
2023-04-14T02:13:08.622Z,16.06
2023-04-14T02:18:11.385Z,15.68
2023-04-14T02:23:13.720Z,15.29
2023-04-14T02:28:22.129Z,16.11
2023-04-14T02:33:29.775Z,16.30
2023-04-14T02:38:39.628Z,16.27
2023-04-14T02:44:02.244Z,16.18
2023-04-14T02:49:06.524Z,15.66
2023-04-14T02:54:09.419Z,16.11
2023-04-14T02:59:12.808Z,16.24
2023-04-14T03:04:16.448Z,15.82
2023-04-14T03:09:20.715Z,15.57
2023-04-14T03:14:23.991Z,15.64
2023-04-14T03:19:28.548Z,15.57
2023-04-14T03:24:35.214Z,15.84
2023-04-14T03:29:42.310Z,15.14
2023-04-14T03:34:49.101Z,15.43
2023-04-14T03:39:53.561Z,15.17
2023-04-14T03:44:58.063Z,15.43
2023-04-14T03:50:02.274Z,15.74
2023-04-14T03:55:07.268Z,15.84
2023-04-14T04:00:11.779Z,15.58
2023-04-14T04:05:14.858Z,15.76
2023-04-14T04:10:18.092Z,15.84
2023-04-14T04:15:20.421Z,15.67
2023-04-14T04:20:24.291Z,15.49
2023-04-14T04:25:26.470Z,15.48
2023-04-14T04:30:31.711Z,15.62
2023-04-14T04:35:36.547Z,14.94
2023-04-14T04:40:39.235Z,15.33
2023-04-14T04:45:59.774Z,15.65
2023-04-14T04:51:02.144Z,15.53
2023-04-14T04:56:04.628Z,15.67
2023-04-14T05:01:11.018Z,15.77
2023-04-14T05:06:13.672Z,15.72
2023-04-14T05:11:18.740Z,15.64
2023-04-14T05:16:21.406Z,15.78
2023-04-14T05:21:24.170Z,15.82
2023-04-14T05:26:49.162Z,15.77
2023-04-14T05:31:48.833Z,15.87
2023-04-14T05:36:51.365Z,16.03
2023-04-14T05:41:54.241Z,16.08
2023-04-14T05:46:56.679Z,15.46
2023-04-14T05:51:59.199Z,15.88
2023-04-14T05:57:01.424Z,15.73
2023-04-14T06:02:07.580Z,15.69
2023-04-14T06:07:09.976Z,15.84
2023-04-14T06:12:13.115Z,16.61
2023-04-14T06:17:15.502Z,16.87
2023-04-14T06:22:20.133Z,17.13
2023-04-14T06:27:22.872Z,17.41
2023-04-14T06:32:25.088Z,17.21
2023-04-14T06:37:27.301Z,17.74
2023-04-14T06:42:29.433Z,18.06
2023-04-14T06:47:31.705Z,18.13
2023-04-14T06:52:34.063Z,18.30
2023-04-14T06:57:36.145Z,18.40
2023-04-14T07:02:39.633Z,18.64
2023-04-14T07:07:41.891Z,18.63
2023-04-14T07:12:43.961Z,18.59
2023-04-14T07:17:46.289Z,18.71
2023-04-14T07:22:49.094Z,18.65
2023-04-14T07:28:02.737Z,18.48
2023-04-14T07:33:06.139Z,18.95
2023-04-14T07:38:08.650Z,19.33
2023-04-14T07:43:11.021Z,19.54
2023-04-14T07:48:13.343Z,19.57
2023-04-14T07:53:15.825Z,19.58
2023-04-14T07:58:18.176Z,19.82
2023-04-14T08:03:21.282Z,20.03
2023-04-14T08:08:24.645Z,20.36
2023-04-14T08:13:26.992Z,20.22
2023-04-14T08:18:29.873Z,19.83
2023-04-14T08:23:32.573Z,20.43
2023-04-14T08:28:34.846Z,20.87
2023-04-14T08:33:37.052Z,20.99
2023-04-14T08:38:39.855Z,21.03
2023-04-14T08:43:42.983Z,21.35
2023-04-14T08:48:50.763Z,21.72
2023-04-14T08:53:57.245Z,21.92
2023-04-14T08:59:02.266Z,22.05
2023-04-14T09:04:05.214Z,22.35
2023-04-14T09:09:08.422Z,22.47
2023-04-14T09:14:13.933Z,22.61
2023-04-14T09:19:17.365Z,22.81
2023-04-14T09:24:24.141Z,22.94
2023-04-14T09:29:26.522Z,23.19
2023-04-14T09:34:28.798Z,23.34
2023-04-14T09:39:32.772Z,23.66
2023-04-14T09:44:35.008Z,23.98
2023-04-14T09:49:38.575Z,24.48
2023-04-14T09:54:42.196Z,24.47
2023-04-14T09:59:47.986Z,24.15
2023-04-14T10:05:05.378Z,24.83
2023-04-14T10:10:10.745Z,24.34
2023-04-14T10:15:16.049Z,25.06
2023-04-14T10:20:19.503Z,25.14
2023-04-14T10:25:22.204Z,24.60
2023-04-14T10:30:25.210Z,24.30
2023-04-14T10:35:31.866Z,24.32
2023-04-14T10:40:52.832Z,25.23
2023-04-14T10:45:59.934Z,25.29
2023-04-14T10:51:05.864Z,25.09
2023-04-14T10:56:08.075Z,24.76
2023-04-14T11:01:32.563Z,25.32
2023-04-14T11:06:47.468Z,25.62
2023-04-14T11:11:49.816Z,24.71
2023-04-14T11:17:02.574Z,24.83
2023-04-14T11:22:06.827Z,24.25
2023-04-14T11:27:12.483Z,24.83
2023-04-14T11:32:14.873Z,24.42
2023-04-14T11:37:17.337Z,24.65
2023-04-14T11:42:20.035Z,24.30
2023-04-14T11:47:25.149Z,24.55
2023-04-14T11:52:27.724Z,24.78
2023-04-14T11:57:30.130Z,24.74
2023-04-14T12:02:32.546Z,24.50
2023-04-14T12:07:35.776Z,23.59
2023-04-14T12:12:38.580Z,24.28
2023-04-14T12:17:41.738Z,24.00
2023-04-14T12:22:44.317Z,24.11
2023-04-14T12:27:56.991Z,23.34
2023-04-14T12:32:59.548Z,23.11
2023-04-14T12:38:02.730Z,23.40
2023-04-14T12:43:05.669Z,23.24
2023-04-14T12:48:08.751Z,22.58
2023-04-14T12:53:29.900Z,22.21
2023-04-14T12:58:32.672Z,21.66
2023-04-14T13:03:53.673Z,21.54
2023-04-14T13:09:00.096Z,20.69
2023-04-14T13:14:02.689Z,21.64
2023-04-14T13:19:05.099Z,20.97
2023-04-14T13:24:08.089Z,19.80
2023-04-14T13:29:10.614Z,20.31
2023-04-14T13:34:13.065Z,20.99
2023-04-14T13:39:15.975Z,20.47
2023-04-14T13:44:18.888Z,20.27
2023-04-14T13:49:21.158Z,20.47
2023-04-14T13:54:23.356Z,20.09
2023-04-14T13:59:25.730Z,20.07
2023-04-14T14:04:28.053Z,20.40
2023-04-14T14:09:30.664Z,20.35
2023-04-14T14:14:33.152Z,20.48
2023-04-14T14:19:35.513Z,20.75
2023-04-14T14:24:38.284Z,20.93
2023-04-14T14:29:40.737Z,21.09
2023-04-14T14:34:45.513Z,21.01
2023-04-14T14:39:47.823Z,20.80
2023-04-14T14:44:50.124Z,20.50
2023-04-14T14:49:59.568Z,20.13
2023-04-14T14:55:04.114Z,20.54
2023-04-14T15:00:08.243Z,20.62
2023-04-14T15:05:10.481Z,20.93
2023-04-14T15:10:12.889Z,20.60
2023-04-14T15:15:15.736Z,20.69
2023-04-14T15:20:18.547Z,21.06
2023-04-14T15:25:21.077Z,20.90
2023-04-14T15:30:24.609Z,21.13
2023-04-14T15:35:27.021Z,20.77
2023-04-14T15:40:29.287Z,21.21
2023-04-14T15:45:32.421Z,21.07
2023-04-14T15:50:34.736Z,21.93
2023-04-14T15:55:50.035Z,20.96
2023-04-14T16:00:52.279Z,21.44
2023-04-14T16:06:05.177Z,21.28
2023-04-14T16:11:08.208Z,21.14
2023-04-14T16:16:12.340Z,20.97
2023-04-14T16:21:15.341Z,21.39
2023-04-14T16:26:17.852Z,20.74
2023-04-14T16:31:20.265Z,20.83
2023-04-14T16:36:26.372Z,20.48
2023-04-14T16:41:29.381Z,20.80
2023-04-14T16:46:33.564Z,20.50
2023-04-14T16:51:35.757Z,20.36
2023-04-14T16:56:38.245Z,20.32
2023-04-14T17:01:40.552Z,20.34
2023-04-14T17:06:43.005Z,20.48
2023-04-14T17:11:46.360Z,20.40
2023-04-14T17:16:48.709Z,20.33
2023-04-14T17:21:50.996Z,20.08
2023-04-14T17:26:53.578Z,19.87
2023-04-14T17:31:56.093Z,19.94
2023-04-14T17:36:59.111Z,20.13
2023-04-14T17:42:01.796Z,19.77
2023-04-14T17:47:13.414Z,19.89
2023-04-14T17:52:17.478Z,19.55
2023-04-14T17:57:19.979Z,19.49
2023-04-14T18:02:22.914Z,19.43
2023-04-14T18:07:26.025Z,19.50
2023-04-14T18:12:28.424Z,19.02
2023-04-14T18:17:30.680Z,19.22
2023-04-14T18:22:33.075Z,19.52
2023-04-14T18:32:41.772Z,19.57
2023-04-14T18:37:45.254Z,19.39
2023-04-14T18:42:49.306Z,19.43
2023-04-14T18:47:51.738Z,19.40
2023-04-14T18:52:55.546Z,20.18
2023-04-14T18:57:57.723Z,19.56
2023-04-14T19:03:01.887Z,19.44
2023-04-14T19:08:04.986Z,19.69
2023-04-14T19:13:07.415Z,19.32
2023-04-14T19:18:11.166Z,18.93
2023-04-14T19:23:13.428Z,18.81
2023-04-14T19:28:18.023Z,18.90
2023-04-14T19:33:20.949Z,18.33
2023-04-14T19:38:23.825Z,18.50
2023-04-14T19:43:26.273Z,17.82
2023-04-14T19:48:29.280Z,18.50
2023-04-14T19:53:31.799Z,17.49
2023-04-14T19:58:34.155Z,16.61
2023-04-14T20:03:36.481Z,16.40
2023-04-14T20:08:38.873Z,17.18
2023-04-14T20:13:41.554Z,17.03
2023-04-14T20:18:45.924Z,16.15
2023-04-14T20:23:48.957Z,16.17
2023-04-14T20:28:51.549Z,16.75
2023-04-14T20:33:53.938Z,17.22
2023-04-14T20:38:57.089Z,17.11
2023-04-14T20:43:59.456Z,16.86
2023-04-14T20:49:03.372Z,17.02
2023-04-14T20:54:05.884Z,17.10
2023-04-14T20:59:08.550Z,16.71
2023-04-14T21:04:11.151Z,16.78
2023-04-14T21:09:13.640Z,16.60
2023-04-14T21:15:40.642Z,16.03
2023-04-14T21:19:38.103Z,16.00
2023-04-14T21:24:40.311Z,15.95
2023-04-14T21:29:42.690Z,16.12
2023-04-14T21:34:45.692Z,16.29
2023-04-14T21:39:49.119Z,15.78
2023-04-14T21:44:51.703Z,15.48
2023-04-14T21:49:53.926Z,15.37
2023-04-14T21:54:56.479Z,15.26
2023-04-14T21:59:59.127Z,15.88
2023-04-14T22:05:01.375Z,16.04
2023-04-14T22:10:04.666Z,16.40
2023-04-14T22:15:09.307Z,16.15
2023-04-14T22:20:12.986Z,16.22
2023-04-14T22:25:15.563Z,16.50
2023-04-14T22:30:18.466Z,15.67
2023-04-14T22:35:21.237Z,15.72
2023-04-14T22:40:23.810Z,15.93
2023-04-14T22:45:26.227Z,15.49
2023-04-14T22:50:31.326Z,15.79
2023-04-14T22:55:33.934Z,15.83
2023-04-14T23:00:36.237Z,14.74
2023-04-14T23:05:39.296Z,14.94
2023-04-14T23:10:42.227Z,15.15
2023-04-14T23:15:44.514Z,15.59
2023-04-14T23:20:46.845Z,14.57
2023-04-14T23:25:49.088Z,13.94
2023-04-14T23:30:51.393Z,13.72
2023-04-14T23:35:53.707Z,12.77
2023-04-14T23:41:00.476Z,12.76
2023-04-14T23:46:02.983Z,12.83
2023-04-14T23:51:22.481Z,13.38
2023-04-14T23:56:25.168Z,12.80
